Time;durP1;ratioP1;P1;durP2;ratioP2;P2;SDS_P1;SDS_P2;PMS_P1;PMS_P2;Temp;Humidity;BMP_temperature;BMP_pressure;BME280_temperature;BME280_humidity;BME280_pressure;Samples;Min_cycle;Max_cycle;Signal;HPM_P1;HPM_P2
2021/07/10 00:00:00;;;;;;;7.77;7.07;;;21.30;42.80;;;;;;5020051;28;20418;-81
2021/07/10 00:02:25;;;;;;;6.33;5.93;;;21.30;42.80;;;;;;5019640;28;20181;-80
2021/07/10 00:04:51;;;;;;;7.73;7.13;;;21.30;42.80;;;;;;5037113;28;20177;-81
2021/07/10 00:07:16;;;;;;;6.90;6.50;;;21.30;42.70;;;;;;5019312;28;20204;-80
2021/07/10 00:09:45;;;;;;;6.80;6.40;;;21.30;42.70;;;;;;5038786;28;20177;-79
2021/07/10 00:12:11;;;;;;;7.03;6.60;;;21.30;42.70;;;;;;5038134;28;20181;-80
2021/07/10 00:14:37;;;;;;;7.17;6.67;;;21.30;42.70;;;;;;5018941;28;20423;-80
2021/07/10 00:17:03;;;;;;;7.03;6.53;;;21.20;42.70;;;;;;5019210;28;20204;-80
2021/07/10 00:19:31;;;;;;;6.20;5.80;;;21.20;42.70;;;;;;5019040;28;20230;-80
2021/07/10 00:21:57;;;;;;;8.10;7.50;;;21.20;42.70;;;;;;5019415;28;20419;-80
2021/07/10 00:24:23;;;;;;;7.00;6.60;;;21.30;42.80;;;;;;5019497;28;20426;-80
2021/07/10 00:26:51;;;;;;;7.90;7.40;;;21.30;42.80;;;;;;5036605;28;20205;-80
2021/07/10 00:29:17;;;;;;;7.20;6.80;;;21.30;42.80;;;;;;5019397;28;20183;-80
2021/07/10 00:31:42;;;;;;;7.00;6.50;;;21.20;42.70;;;;;;5018670;28;20419;-80
2021/07/10 00:34:08;;;;;;;6.80;6.30;;;21.20;42.70;;;;;;5018891;28;20180;-80
2021/07/10 00:36:34;;;;;;;7.50;7.00;;;21.20;42.70;;;;;;5017732;28;20200;-80
2021/07/10 00:39:00;;;;;;;6.80;6.40;;;21.20;42.70;;;;;;5018451;28;20546;-79
2021/07/10 00:41:26;;;;;;;6.30;5.80;;;21.20;42.70;;;;;;5018724;28;20169;-79
2021/07/10 00:43:51;;;;;;;6.50;6.00;;;21.20;42.80;;;;;;5018701;28;20415;-79
2021/07/10 00:46:21;;;;;;;7.83;7.33;;;21.20;42.70;;;;;;5035779;28;20534;-80
2021/07/10 00:48:48;;;;;;;6.73;6.33;;;21.20;42.70;;;;;;5018287;28;20208;-79
2021/07/10 00:51:17;;;;;;;7.60;7.10;;;21.20;42.70;;;;;;5018512;28;20424;-79
2021/07/10 00:53:42;;;;;;;7.63;6.90;;;21.20;42.70;;;;;;5035934;28;20411;-79
2021/07/10 00:56:12;;;;;;;7.57;7.07;;;21.20;42.70;;;;;;5035471;28;20405;-79
2021/07/10 00:58:38;;;;;;;7.03;6.60;;;21.20;42.70;;;;;;5036188;28;20172;-80
2021/07/10 01:01:04;;;;;;;7.53;6.93;;;21.20;42.70;;;;;;5017587;28;20420;-80
2021/07/10 01:03:32;;;;;;;6.80;6.40;;;21.20;42.70;;;;;;5017989;28;20177;-79
2021/07/10 01:05:59;;;;;;;7.10;6.70;;;21.20;42.60;;;;;;5017587;28;20849;-80
2021/07/10 01:08:25;;;;;;;6.87;6.40;;;21.20;42.60;;;;;;5018068;28;20988;-80
2021/07/10 01:10:51;;;;;;;6.73;6.33;;;21.20;42.60;;;;;;5035647;28;20441;-80
2021/07/10 01:13:20;;;;;;;6.97;6.57;;;21.20;42.70;;;;;;5017812;28;20172;-80
2021/07/10 01:15:46;;;;;;;6.87;6.37;;;21.20;42.60;;;;;;5017491;28;20419;-80
2021/07/10 01:18:12;;;;;;;6.57;6.10;;;21.20;42.60;;;;;;5034935;28;20423;-80
2021/07/10 01:20:50;;;;;;;7.40;6.80;;;21.20;42.60;;;;;;5017798;28;20430;-80
2021/07/10 01:23:19;;;;;;;7.47;7.00;;;21.20;42.60;;;;;;5017513;28;20714;-79
2021/07/10 01:25:46;;;;;;;6.60;6.20;;;21.10;42.50;;;;;;5034696;28;20427;-79
2021/07/10 01:28:13;;;;;;;6.90;6.43;;;21.20;42.60;;;;;;5017318;28;20844;-79
2021/07/10 01:30:40;;;;;;;6.60;6.20;;;21.20;42.50;;;;;;5034721;28;20452;-79
2021/07/10 01:33:06;;;;;;;6.80;6.40;;;21.20;42.60;;;;;;5034973;28;20937;-79
2021/07/10 01:35:36;;;;;;;6.53;6.13;;;21.20;42.50;;;;;;5016655;28;20415;-79
2021/07/10 01:38:08;;;;;;;7.07;6.67;;;21.20;42.50;;;;;;5016806;28;20431;-79
2021/07/10 01:40:37;;;;;;;7.57;7.07;;;21.10;42.40;;;;;;5016511;28;20785;-79
2021/07/10 01:43:11;;;;;;;6.40;6.00;;;21.10;42.40;;;;;;5033845;28;20466;-79
2021/07/10 01:45:42;;;;;;;6.30;5.90;;;21.20;42.40;;;;;;5016117;28;20415;-79
2021/07/10 01:48:13;;;;;;;7.40;6.90;;;21.10;42.40;;;;;;5015347;28;20565;-79
2021/07/10 01:50:43;;;;;;;6.23;5.93;;;21.10;42.40;;;;;;5016077;28;20569;-80
2021/07/10 01:53:14;;;;;;;6.67;6.27;;;21.10;42.40;;;;;;5015786;28;20840;-80
2021/07/10 01:55:42;;;;;;;6.80;6.40;;;21.10;42.30;;;;;;5015988;28;20434;-79
2021/07/10 01:58:08;;;;;;;6.90;6.50;;;21.10;42.20;;;;;;5033869;28;20839;-80
2021/07/10 02:00:37;;;;;;;7.40;6.90;;;21.10;42.20;;;;;;5016557;28;20433;-80
2021/07/10 02:03:03;;;;;;;6.53;6.13;;;21.10;42.20;;;;;;5017373;28;20562;-80
2021/07/10 02:05:29;;;;;;;6.47;6.07;;;21.10;42.20;;;;;;5017815;28;20442;-80
2021/07/10 02:07:59;;;;;;;6.43;6.03;;;21.10;42.20;;;;;;5034727;28;20680;-80
2021/07/10 02:10:29;;;;;;;6.93;6.53;;;21.10;42.20;;;;;;5016983;28;20859;-80
2021/07/10 02:13:07;;;;;;;7.37;6.77;;;21.10;42.20;;;;;;5035390;28;20412;-80
2021/07/10 02:15:34;;;;;;;6.27;5.90;;;21.10;42.10;;;;;;5017018;28;20422;-80
2021/07/10 02:17:59;;;;;;;6.70;6.20;;;21.10;42.10;;;;;;5017514;28;20442;-80
2021/07/10 02:20:26;;;;;;;6.70;6.30;;;21.10;42.10;;;;;;5017826;28;20424;-80
2021/07/10 02:22:53;;;;;;;6.70;6.33;;;21.10;42.10;;;;;;5034917;28;20181;-80
2021/07/10 02:25:20;;;;;;;6.23;5.83;;;21.10;42.10;;;;;;5035068;28;20416;-80
2021/07/10 02:27:46;;;;;;;6.73;6.33;;;21.10;42.00;;;;;;5033063;28;20482;-80
2021/07/10 02:30:17;;;;;;;6.63;6.20;;;21.10;42.10;;;;;;5034643;28;20408;-80
2021/07/10 02:32:44;;;;;;;6.60;6.07;;;21.10;42.10;;;;;;5017073;28;20218;-80
2021/07/10 02:35:12;;;;;;;6.43;6.03;;;21.10;42.10;;;;;;5034791;28;20465;-80
2021/07/10 02:37:41;;;;;;;6.37;5.97;;;21.10;42.10;;;;;;5034029;28;20434;-80
2021/07/10 02:40:12;;;;;;;6.53;5.93;;;21.10;42.10;;;;;;5016877;28;20519;-80
2021/07/10 02:42:38;;;;;;;6.40;6.00;;;21.10;42.10;;;;;;5017276;28;20511;-80
2021/07/10 02:45:08;;;;;;;6.20;5.90;;;21.10;42.10;;;;;;5016381;28;20473;-80
2021/07/10 02:47:34;;;;;;;6.97;6.47;;;21.00;42.00;;;;;;5016662;28;20516;-80
2021/07/10 02:50:00;;;;;;;7.00;6.43;;;21.10;42.20;;;;;;5016114;28;20514;-80
2021/07/10 02:52:26;;;;;;;6.50;6.10;;;21.00;42.10;;;;;;5016390;28;20418;-80
2021/07/10 02:54:52;;;;;;;6.37;5.97;;;21.00;42.10;;;;;;5033899;28;20412;-80
2021/07/10 02:57:18;;;;;;;6.00;5.70;;;21.10;42.10;;;;;;5016456;28;20277;-80
2021/07/10 02:59:45;;;;;;;7.13;6.70;;;21.10;42.20;;;;;;5016372;28;20234;-80
2021/07/10 03:02:11;;;;;;;6.23;5.93;;;21.10;42.20;;;;;;5016505;28;20427;-80
2021/07/10 03:04:39;;;;;;;6.40;6.00;;;21.10;42.20;;;;;;5016868;28;20423;-80
2021/07/10 03:07:06;;;;;;;6.30;5.80;;;21.10;42.20;;;;;;5017108;28;20585;-80
2021/07/10 03:09:31;;;;;;;6.70;6.30;;;21.10;42.20;;;;;;5016526;28;20788;-80
2021/07/10 03:11:57;;;;;;;6.67;6.27;;;21.10;42.20;;;;;;5016518;28;20423;-80
2021/07/10 03:14:23;;;;;;;6.70;6.30;;;21.10;42.20;;;;;;5016511;28;20940;-80
2021/07/10 03:16:48;;;;;;;6.00;5.70;;;21.00;42.20;;;;;;5016287;28;20204;-80
2021/07/10 03:19:14;;;;;;;6.40;6.00;;;21.00;42.10;;;;;;5016556;28;20185;-80
2021/07/10 03:21:40;;;;;;;6.47;6.00;;;21.10;42.20;;;;;;5016400;28;20205;-80
2021/07/10 03:24:06;;;;;;;6.70;6.30;;;21.10;42.20;;;;;;5034245;28;20251;-80
2021/07/10 03:26:32;;;;;;;7.00;6.50;;;21.00;42.10;;;;;;5033913;28;20458;-80
2021/07/10 03:28:57;;;;;;;6.87;6.37;;;21.00;42.10;;;;;;5016495;28;20236;-80
2021/07/10 03:31:23;;;;;;;6.70;6.00;;;21.00;42.10;;;;;;5016478;28;20176;-80
2021/07/10 03:33:49;;;;;;;6.90;6.50;;;21.00;42.10;;;;;;5016040;28;20647;-80
2021/07/10 03:36:15;;;;;;;6.73;6.33;;;21.00;42.10;;;;;;5015749;28;21060;-80
2021/07/10 03:38:46;;;;;;;6.80;6.40;;;21.00;42.10;;;;;;5015732;28;20481;-80
2021/07/10 03:41:14;;;;;;;5.67;5.37;;;21.00;42.00;;;;;;5033763;28;20662;-80
2021/07/10 03:43:40;;;;;;;6.13;5.80;;;21.00;42.10;;;;;;5015815;28;20489;-80
2021/07/10 03:46:08;;;;;;;6.97;6.57;;;21.00;42.10;;;;;;5033624;28;20764;-80
2021/07/10 03:48:34;;;;;;;6.63;6.23;;;21.00;42.10;;;;;;5015909;28;20487;-80
2021/07/10 03:51:05;;;;;;;6.50;6.00;;;21.00;42.00;;;;;;5016151;28;20429;-80
2021/07/10 03:53:31;;;;;;;6.47;6.10;;;21.00;42.00;;;;;;5016082;28;20461;-80
2021/07/10 03:55:57;;;;;;;6.63;6.23;;;21.00;42.00;;;;;;5032461;28;20419;-80
2021/07/10 03:58:25;;;;;;;6.47;6.07;;;21.00;42.00;;;;;;5032848;28;20200;-80
2021/07/10 04:00:53;;;;;;;6.87;6.30;;;21.00;42.00;;;;;;5033789;28;20411;-80
2021/07/10 04:03:39;;;;;;;6.37;5.97;;;21.00;42.00;;;;;;5033270;28;20411;-80
2021/07/10 04:06:11;;;;;;;6.43;6.10;;;21.00;42.00;;;;;;5015185;28;20780;-80
2021/07/10 04:08:39;;;;;;;6.67;6.27;;;21.00;42.00;;;;;;5033304;28;20459;-80
2021/07/10 04:11:07;;;;;;;6.60;6.20;;;20.90;41.90;;;;;;5016547;28;20502;-80
2021/07/10 04:13:33;;;;;;;6.30;6.00;;;21.00;42.00;;;;;;5037069;28;20407;-80
2021/07/10 04:16:00;;;;;;;5.67;5.30;;;21.00;41.90;;;;;;5018783;28;20412;-80
2021/07/10 04:18:26;;;;;;;6.40;6.03;;;21.00;41.90;;;;;;5019083;28;20822;-80
2021/07/10 04:20:55;;;;;;;6.80;6.50;;;20.90;41.90;;;;;;5036498;28;20941;-80
2021/07/10 04:23:23;;;;;;;6.73;6.33;;;21.00;41.90;;;;;;5036582;28;20502;-79
2021/07/10 04:25:52;;;;;;;6.20;5.90;;;21.00;41.90;;;;;;5035960;28;20495;-80
2021/07/10 04:28:18;;;;;;;5.60;5.30;;;21.00;41.90;;;;;;5036010;28;20470;-80
2021/07/10 04:30:44;;;;;;;6.40;6.00;;;21.00;41.90;;;;;;5018582;28;20420;-80
2021/07/10 04:33:10;;;;;;;6.83;6.23;;;20.90;41.80;;;;;;5035758;28;20189;-80
2021/07/10 04:35:36;;;;;;;7.37;6.97;;;20.90;41.80;;;;;;5019287;28;20172;-80
2021/07/10 04:38:02;;;;;;;6.90;6.50;;;20.90;41.90;;;;;;5018883;28;20446;-80
2021/07/10 04:40:30;;;;;;;6.20;5.80;;;20.90;41.80;;;;;;5036388;28;20177;-80
2021/07/10 04:42:56;;;;;;;6.50;6.10;;;20.90;41.90;;;;;;5036341;28;20419;-80
2021/07/10 04:45:22;;;;;;;5.90;5.50;;;20.90;41.90;;;;;;5036147;28;20538;-80
2021/07/10 04:47:48;;;;;;;6.17;5.83;;;21.00;42.00;;;;;;5018491;28;20211;-79
2021/07/10 04:50:15;;;;;;;6.67;6.27;;;21.00;42.00;;;;;;5037162;28;20176;-79
2021/07/10 04:52:42;;;;;;;6.37;5.97;;;21.00;42.50;;;;;;5037266;28;20184;-78
2021/07/10 04:55:10;;;;;;;6.47;6.07;;;21.00;42.60;;;;;;5036882;28;20415;-78
2021/07/10 04:57:36;;;;;;;7.07;6.60;;;21.00;42.90;;;;;;5036985;28;20431;-78
2021/07/10 05:00:04;;;;;;;7.10;6.23;;;21.10;43.40;;;;;;5037192;28;20417;-78
2021/07/10 05:02:29;;;;;;;6.10;5.70;;;21.10;43.60;;;;;;5019871;28;20176;-78
2021/07/10 05:04:55;;;;;;;7.70;7.10;;;21.10;43.60;;;;;;5019087;28;20408;-78
2021/07/10 05:07:26;;;;;;;6.97;6.57;;;21.10;44.00;;;;;;5036077;28;20609;-79
2021/07/10 05:09:52;;;;;;;6.43;6.03;;;21.20;43.90;;;;;;5018783;28;20546;-78
2021/07/10 05:12:20;;;;;;;6.63;6.20;;;21.20;44.00;;;;;;5035249;28;20414;-79
2021/07/10 05:14:47;;;;;;;6.90;6.40;;;21.20;43.80;;;;;;5017810;28;20501;-78
2021/07/10 05:17:12;;;;;;;7.00;6.27;;;21.10;43.70;;;;;;5035215;28;20442;-78
2021/07/10 05:19:38;;;;;;;7.30;6.80;;;21.10;44.00;;;;;;5035466;28;20411;-78
2021/07/10 05:22:04;;;;;;;7.50;6.80;;;21.10;44.00;;;;;;5017038;28;20203;-78
2021/07/10 05:24:29;;;;;;;6.63;5.47;;;21.20;44.00;;;;;;5034063;28;20214;-78
2021/07/10 05:26:55;;;;;;;7.03;6.53;;;21.20;44.60;;;;;;5032726;28;20556;-78
2021/07/10 05:29:20;;;;;;;6.90;6.40;;;21.20;43.90;;;;;;5034784;28;20179;-78
2021/07/10 05:31:46;;;;;;;6.40;5.90;;;21.20;44.00;;;;;;5036525;28;20179;-79
2021/07/10 05:34:12;;;;;;;5.90;5.50;;;21.20;43.60;;;;;;5040552;28;20204;-79
2021/07/10 05:36:38;;;;;;;7.43;6.90;;;21.20;43.90;;;;;;5021100;28;20220;-78
2021/07/10 05:39:04;;;;;;;6.80;6.30;;;21.10;43.60;;;;;;5036587;28;20268;-79
2021/07/10 05:41:30;;;;;;;7.10;6.50;;;21.10;44.00;;;;;;5034958;28;20446;-79
2021/07/10 05:43:55;;;;;;;6.83;6.43;;;21.10;43.40;;;;;;5034596;28;20469;-79
2021/07/10 05:46:21;;;;;;;6.77;6.00;;;21.10;43.40;;;;;;5034121;28;20583;-79
2021/07/10 05:48:46;;;;;;;6.90;6.40;;;21.10;43.10;;;;;;5034418;28;20204;-79
2021/07/10 05:51:12;;;;;;;7.43;6.87;;;21.10;43.10;;;;;;5016916;28;20595;-79
2021/07/10 05:53:37;;;;;;;9.23;7.30;;;21.10;42.80;;;;;;5016824;28;20191;-78
2021/07/10 05:56:03;;;;;;;7.20;6.70;;;21.10;42.30;;;;;;5034080;28;20256;-78
2021/07/10 05:58:29;;;;;;;6.90;6.43;;;21.10;42.80;;;;;;5034501;28;20176;-78
2021/07/10 06:00:54;;;;;;;8.20;6.83;;;21.10;42.90;;;;;;5034097;28;20842;-78
2021/07/10 06:03:23;;;;;;;7.00;6.33;;;21.10;42.80;;;;;;5033477;28;20207;-79
2021/07/10 06:05:49;;;;;;;6.50;6.00;;;21.10;42.90;;;;;;5033041;28;20192;-79
2021/07/10 06:08:15;;;;;;;7.33;6.63;;;21.10;42.90;;;;;;5034221;28;20459;-78
2021/07/10 06:10:40;;;;;;;6.90;6.50;;;21.10;43.80;;;;;;5036943;28;20173;-78
2021/07/10 06:13:06;;;;;;;6.80;6.40;;;21.10;43.10;;;;;;5018766;28;20477;-81
2021/07/10 06:15:31;;;;;;;8.53;7.83;;;21.20;43.20;;;;;;5019479;28;20263;-78
2021/07/10 06:17:57;;;;;;;7.07;6.37;;;21.20;43.20;;;;;;5018002;28;20571;-78
2021/07/10 06:20:23;;;;;;;6.87;6.37;;;21.20;43.20;;;;;;5016208;28;20311;-79
2021/07/10 06:22:50;;;;;;;8.00;7.23;;;21.20;43.20;;;;;;5017760;28;20778;-78
2021/07/10 06:25:17;;;;;;;9.53;8.37;;;21.20;43.20;;;;;;5035899;28;20227;-78
2021/07/10 06:27:43;;;;;;;11.47;7.97;;;21.20;43.10;;;;;;5018128;28;20467;-78
2021/07/10 06:30:11;;;;;;;11.20;7.33;;;21.30;43.30;;;;;;5036093;28;20411;-78
2021/07/10 06:32:38;;;;;;;8.80;7.97;;;21.20;43.10;;;;;;5036146;28;21058;-78
2021/07/10 06:35:05;;;;;;;12.87;7.77;;;21.30;43.20;;;;;;5035274;28;20852;-79
2021/07/10 06:37:30;;;;;;;10.33;8.00;;;21.30;43.40;;;;;;5018373;28;20471;-78
2021/07/10 06:39:56;;;;;;;12.20;9.00;;;21.30;43.50;;;;;;5036460;28;20430;-78
2021/07/10 06:42:22;;;;;;;10.40;8.60;;;21.30;43.40;;;;;;5037722;28;20177;-78
2021/07/10 06:44:47;;;;;;;9.87;7.50;;;21.30;43.60;;;;;;5035925;28;20176;-78
2021/07/10 06:47:14;;;;;;;8.90;8.10;;;21.30;43.50;;;;;;5018787;28;20208;-78
2021/07/10 06:49:42;;;;;;;9.80;7.60;;;21.30;43.60;;;;;;5018405;28;20271;-79
2021/07/10 06:52:07;;;;;;;9.03;8.30;;;21.30;43.70;;;;;;5034929;28;20424;-78
2021/07/10 06:54:33;;;;;;;7.70;7.07;;;21.30;44.00;;;;;;5035736;28;20448;-78
2021/07/10 06:56:59;;;;;;;8.17;7.57;;;21.30;43.70;;;;;;5018355;28;20200;-78
2021/07/10 06:59:24;;;;;;;8.73;8.07;;;21.30;43.70;;;;;;5035664;28;20173;-78
2021/07/10 07:01:51;;;;;;;7.60;7.00;;;21.30;43.60;;;;;;5035977;28;20181;-78
2021/07/10 07:04:20;;;;;;;7.10;6.60;;;21.40;43.70;;;;;;5036248;28;20197;-78
2021/07/10 07:06:46;;;;;;;11.07;8.23;;;21.40;43.60;;;;;;5035742;28;20948;-78
2021/07/10 07:09:11;;;;;;;6.73;6.10;;;21.40;43.50;;;;;;5035558;28;20419;-79
2021/07/10 07:11:37;;;;;;;8.47;7.77;;;21.40;43.60;;;;;;5035477;28;20410;-78
2021/07/10 07:14:03;;;;;;;7.40;6.87;;;21.40;43.60;;;;;;5018065;28;20180;-78
2021/07/10 07:16:31;;;;;;;7.43;6.70;;;21.40;43.60;;;;;;5034668;28;20329;-78
2021/07/10 07:18:56;;;;;;;7.53;6.90;;;21.40;43.60;;;;;;5034487;28;20181;-78
2021/07/10 07:21:22;;;;;;;7.37;6.87;;;21.40;43.60;;;;;;5016774;28;20418;-78
2021/07/10 07:23:47;;;;;;;7.50;6.90;;;21.40;43.60;;;;;;5034225;28;20187;-77
2021/07/10 07:26:13;;;;;;;8.07;7.30;;;21.40;43.60;;;;;;5035707;28;20259;-78
2021/07/10 07:28:39;;;;;;;8.00;7.30;;;21.40;43.60;;;;;;5032810;28;20607;-78
2021/07/10 07:31:05;;;;;;;7.70;6.60;;;21.40;43.60;;;;;;5035298;28;20219;-79
2021/07/10 07:33:31;;;;;;;7.20;6.60;;;21.40;43.60;;;;;;5035830;28;20646;-78
2021/07/10 07:35:57;;;;;;;7.73;7.00;;;21.40;43.50;;;;;;5034667;28;20407;-78
2021/07/10 07:38:23;;;;;;;7.87;7.00;;;21.40;43.80;;;;;;5016105;28;20443;-78
2021/07/10 07:40:49;;;;;;;9.53;8.10;;;21.40;43.80;;;;;;5017513;28;20430;-79
2021/07/10 07:43:15;;;;;;;8.80;8.03;;;21.40;44.00;;;;;;5017100;28;20427;-79
2021/07/10 07:46:00;;;;;;;7.63;7.03;;;21.40;44.30;;;;;;5035088;28;20210;-78
2021/07/10 07:48:32;;;;;;;9.47;8.83;;;21.40;44.50;;;;;;5038818;28;20203;-78
2021/07/10 07:50:57;;;;;;;8.50;7.80;;;21.40;44.50;;;;;;5019624;28;20407;-79
2021/07/10 07:53:29;;;;;;;8.80;8.00;;;21.50;44.90;;;;;;5037903;28;20851;-80
2021/07/10 07:55:55;;;;;;;7.97;7.37;;;21.50;44.80;;;;;;5019490;28;20197;-80
2021/07/10 07:58:21;;;;;;;10.20;8.50;;;21.40;44.30;;;;;;5020269;28;20443;-81
2021/07/10 08:01:05;;;;;;;7.80;7.17;;;21.50;44.30;;;;;;5038138;28;20921;-80
2021/07/10 08:03:52;;;;;;;;;;;;;;;;;;;;;
2021/07/10 08:06:18;;;;;;;8.40;7.57;;;21.40;44.00;;;;;;5036423;28;20518;-81
2021/07/10 08:08:43;;;;;;;8.00;7.50;;;21.40;44.10;;;;;;5037473;28;20550;-80
2021/07/10 08:11:09;;;;;;;7.77;7.17;;;21.40;43.90;;;;;;5036584;28;20179;-81
2021/07/10 08:13:36;;;;;;;7.70;7.20;;;21.50;44.00;;;;;;5036586;28;20177;-80
2021/07/10 08:16:02;;;;;;;7.83;7.33;;;21.50;43.70;;;;;;5019101;28;20423;-80
2021/07/10 08:18:28;;;;;;;8.63;7.93;;;21.50;43.80;;;;;;5019316;28;20423;-80
2021/07/10 08:21:02;;;;;;;7.00;6.57;;;21.50;43.70;;;;;;5019306;28;20480;-80
2021/07/10 08:23:27;;;;;;;7.23;6.73;;;21.50;43.80;;;;;;5019125;28;20188;-80
2021/07/10 08:25:53;;;;;;;10.57;8.43;;;21.50;43.90;;;;;;5034989;28;20495;-80
2021/07/10 08:28:23;;;;;;;8.00;7.40;;;21.50;43.70;;;;;;5018364;28;20219;-81
2021/07/10 08:30:58;;;;;;;7.17;6.77;;;21.50;43.60;;;;;;5018393;28;20422;-80
2021/07/10 08:33:24;;;;;;;7.50;7.10;;;21.50;43.30;;;;;;5017746;28;20810;-80
2021/07/10 08:35:50;;;;;;;7.20;6.70;;;21.50;43.20;;;;;;5033836;28;20485;-78
2021/07/10 08:38:16;;;;;;;8.07;7.37;;;21.50;43.30;;;;;;5018011;28;20957;-78
2021/07/10 08:40:41;;;;;;;7.80;7.20;;;21.50;43.20;;;;;;5035380;28;20169;-78
2021/07/10 08:43:07;;;;;;;7.67;7.00;;;21.60;43.20;;;;;;5035266;28;20439;-77
2021/07/10 08:45:34;;;;;;;7.30;6.80;;;21.60;42.10;;;;;;5033533;28;20185;-78
2021/07/10 08:48:03;;;;;;;7.10;6.70;;;21.60;42.20;;;;;;5035059;28;20224;-79
2021/07/10 08:50:29;;;;;;;7.70;7.10;;;21.60;42.50;;;;;;5017875;28;20453;-79
2021/07/10 08:52:54;;;;;;;6.90;6.50;;;21.60;42.20;;;;;;5039902;28;20412;-79
2021/07/10 08:55:20;;;;;;;7.83;7.30;;;21.60;42.40;;;;;;5040822;28;20206;-79
2021/07/10 08:57:46;;;;;;;7.67;7.07;;;21.60;42.20;;;;;;5040100;28;20289;-78
2021/07/10 09:00:18;;;;;;;7.40;6.90;;;21.60;42.40;;;;;;5023391;28;20177;-80
2021/07/10 09:02:47;;;;;;;7.27;6.80;;;21.60;42.10;;;;;;5042496;28;20228;-78
2021/07/10 09:05:13;;;;;;;7.07;6.67;;;21.60;41.70;;;;;;5039552;28;20411;-78
2021/07/10 09:08:19;;;;;;;7.90;7.33;;;21.60;41.70;;;;;;5020958;28;20550;-78
2021/07/10 09:10:48;;;;;;;6.73;6.23;;;21.60;41.70;;;;;;5036164;28;20395;-78
2021/07/10 09:13:14;;;;;;;6.70;6.17;;;21.60;41.70;;;;;;5036823;28;20847;-78
2021/07/10 09:15:40;;;;;;;6.43;5.93;;;21.70;41.50;;;;;;5037332;28;20446;-78
2021/07/10 09:18:10;;;;;;;7.03;6.53;;;21.70;40.30;;;;;;5036926;28;20189;-79
2021/07/10 09:20:36;;;;;;;6.03;5.73;;;21.60;40.70;;;;;;5037092;28;20200;-79
2021/07/10 09:23:21;;;;;;;5.73;5.40;;;21.70;40.20;;;;;;5019409;28;20799;-78
2021/07/10 09:25:47;;;;;;;6.17;5.77;;;21.70;40.80;;;;;;5034505;28;20407;-78
2021/07/10 09:28:13;;;;;;;6.00;5.40;;;21.70;40.20;;;;;;5035930;28;20573;-78
2021/07/10 09:30:40;;;;;;;5.70;5.40;;;21.70;40.10;;;;;;5036448;28;20245;-78
2021/07/10 09:33:27;;;;;;;6.33;5.83;;;21.70;40.40;;;;;;5036871;28;20461;-78
2021/07/10 09:36:01;;;;;;;6.10;5.50;;;21.70;40.20;;;;;;5035767;28;20399;-79
2021/07/10 09:38:37;;;;;;;5.40;5.10;;;21.70;40.40;;;;;;5050776;23;20586;-78
2021/07/10 09:41:08;;;;;;;6.17;5.77;;;21.70;40.70;;;;;;5035631;28;20463;-78
2021/07/10 09:43:36;;;;;;;5.80;5.40;;;21.70;40.80;;;;;;5034912;28;20517;-76
2021/07/10 09:46:04;;;;;;;5.80;5.50;;;21.70;40.70;;;;;;5036565;28;20785;-79
2021/07/10 09:48:31;;;;;;;5.27;4.97;;;21.70;38.20;;;;;;5021198;28;20458;-78
2021/07/10 09:51:17;;;;;;;6.17;5.63;;;21.70;38.90;;;;;;5037669;28;20450;-78
2021/07/10 09:54:03;;;;;;;5.60;5.23;;;21.70;39.40;;;;;;5037015;28;20411;-85
2021/07/10 09:56:30;;;;;;;5.33;5.03;;;21.70;39.70;;;;;;5037494;28;20446;-81
2021/07/10 09:58:57;;;;;;;5.80;5.40;;;21.70;39.60;;;;;;5021915;28;20455;-80
2021/07/10 10:01:36;;;;;;;5.57;5.17;;;21.70;39.20;;;;;;5037881;28;20408;-80
2021/07/10 10:04:41;;;;;;;6.20;5.80;;;21.80;36.80;;;;;;5019370;28;20508;-82
2021/07/10 10:07:14;;;;;;;5.87;5.37;;;21.80;37.80;;;;;;5034219;28;20443;-83
2021/07/10 10:09:43;;;;;;;5.70;5.30;;;21.80;38.60;;;;;;5037108;28;20428;-81
2021/07/10 10:12:19;;;;;;;5.17;4.87;;;21.80;38.30;;;;;;5020752;28;20856;-82
2021/07/10 10:14:49;;;;;;;5.90;5.60;;;21.80;37.30;;;;;;5020364;28;20418;-84
2021/07/10 10:17:18;;;;;;;5.87;5.40;;;21.80;37.50;;;;;;5018822;28;20470;-84
2021/07/10 10:19:48;;;;;;;6.33;5.93;;;21.80;37.70;;;;;;5018413;28;20435;-83
2021/07/10 10:22:18;;;;;;;5.63;5.27;;;21.90;37.90;;;;;;5036106;28;20427;-78
2021/07/10 10:24:48;;;;;;;6.47;5.30;;;21.90;37.90;;;;;;5031736;28;20970;-78
2021/07/10 10:30:59;;;;;;;5.20;4.90;;;21.90;37.70;;;;;;5015913;28;20439;-78
2021/07/10 10:33:49;;;;;;;6.00;5.60;;;21.90;38.20;;;;;;5032600;28;20839;-78
2021/07/10 10:36:15;;;;;;;5.83;5.33;;;21.90;38.50;;;;;;5033698;28;20416;-78
2021/07/10 10:39:02;;;;;;;5.80;5.50;;;21.90;37.60;;;;;;5015617;28;20427;-77
2021/07/10 10:42:01;;;;;;;8.73;5.60;;;21.90;36.80;;;;;;5016058;28;20436;-77
2021/07/10 10:44:45;;;;;;;5.97;5.57;;;21.90;37.30;;;;;;5032862;28;20415;-77
2021/07/10 10:47:13;;;;;;;5.43;5.03;;;21.90;37.80;;;;;;5016546;28;20586;-77
2021/07/10 10:49:49;;;;;;;5.43;5.13;;;21.90;38.10;;;;;;5017637;28;20515;-78
2021/07/10 10:52:44;;;;;;;5.60;5.30;;;21.90;37.40;;;;;;5033512;28;21174;-78
2021/07/10 10:55:33;;;;;;;5.40;5.00;;;21.90;36.80;;;;;;5032204;28;20442;-77
2021/07/10 10:58:16;;;;;;;5.57;5.07;;;22.00;37.50;;;;;;5016436;28;20552;-78
2021/07/10 11:03:49;;;;;;;5.23;4.93;;;21.90;37.20;;;;;;5035937;28;20784;-79
2021/07/10 11:06:31;;;;;;;5.90;4.87;;;22.00;36.50;;;;;;5017561;28;20419;-78
2021/07/10 11:08:58;;;;;;;4.90;4.60;;;22.00;36.20;;;;;;5035043;28;20458;-79
2021/07/10 11:11:34;;;;;;;4.70;4.40;;;22.00;36.50;;;;;;5033973;28;20446;-78
2021/07/10 11:14:10;;;;;;;5.57;5.20;;;21.90;36.70;;;;;;5018034;28;20506;-81
2021/07/10 11:16:56;;;;;;;4.70;4.40;;;21.90;36.70;;;;;;5033743;28;20443;-80
2021/07/10 11:19:42;;;;;;;5.20;4.90;;;22.00;36.70;;;;;;5020160;28;20420;-79
2021/07/10 11:22:08;;;;;;;5.03;4.73;;;22.00;36.80;;;;;;5040838;28;20453;-79
2021/07/10 11:24:46;;;;;;;5.17;4.87;;;21.90;36.10;;;;;;5038821;28;20482;-80
2021/07/10 11:27:11;;;;;;;5.23;4.83;;;22.00;37.40;;;;;;5041307;28;20199;-81
2021/07/10 11:29:43;;;;;;;5.30;4.90;;;22.00;36.20;;;;;;5022530;28;20423;-81
2021/07/10 11:32:12;;;;;;;4.57;4.33;;;22.00;36.20;;;;;;5023176;28;20179;-80
2021/07/10 11:35:00;;;;;;;5.40;5.00;;;22.00;35.60;;;;;;5021988;28;20427;-82
2021/07/10 11:37:28;;;;;;;4.93;4.70;;;22.00;36.00;;;;;;5038525;28;20451;-82
2021/07/10 11:39:53;;;;;;;5.17;4.87;;;22.00;35.70;;;;;;5038608;28;20521;-80
2021/07/10 11:42:23;;;;;;;5.20;4.90;;;22.00;36.20;;;;;;5037742;28;20458;-79
2021/07/10 11:44:51;;;;;;;4.53;4.33;;;22.00;36.60;;;;;;5037417;28;20173;-81
2021/07/10 11:47:45;;;;;;;4.00;3.80;;;22.00;36.70;;;;;;5036569;28;20542;-80
2021/07/10 11:50:17;;;;;;;4.93;4.60;;;22.00;35.50;;;;;;5015977;28;20427;-78
2021/07/10 11:52:58;;;;;;;4.97;4.67;;;22.00;34.10;;;;;;5034583;28;20446;-77
2021/07/10 11:55:26;;;;;;;5.00;4.70;;;22.00;34.60;;;;;;5018066;28;20422;-77
2021/07/10 11:57:52;;;;;;;5.07;4.87;;;22.00;35.50;;;;;;5034814;28;20482;-77
2021/07/10 12:00:18;;;;;;;4.90;4.60;;;22.00;35.50;;;;;;5036724;28;20833;-77
2021/07/10 12:02:44;;;;;;;5.50;5.20;;;22.00;35.40;;;;;;5035058;28;20449;-77
2021/07/10 12:05:18;;;;;;;5.27;4.87;;;22.00;35.80;;;;;;5038371;28;20427;-76
2021/07/10 12:07:49;;;;;;;5.40;4.90;;;22.00;35.50;;;;;;5036581;28;20272;-80
2021/07/10 12:10:19;;;;;;;5.10;4.77;;;22.00;35.90;;;;;;5036171;28;20421;-78
2021/07/10 12:12:54;;;;;;;6.10;5.70;;;22.00;35.90;;;;;;5035069;28;20484;-78
2021/07/10 12:15:21;;;;;;;8.50;5.60;;;22.00;35.30;;;;;;5036443;28;20402;-78
2021/07/10 12:17:53;;;;;;;6.27;5.87;;;22.00;35.60;;;;;;5018464;28;20824;-79
2021/07/10 12:20:26;;;;;;;5.40;4.97;;;22.00;35.90;;;;;;5034956;28;20427;-78
2021/07/10 12:22:58;;;;;;;5.73;5.00;;;22.00;36.20;;;;;;5021089;28;20898;-78
2021/07/10 12:25:28;;;;;;;6.10;5.60;;;22.00;35.20;;;;;;5040402;28;20411;-78
2021/07/10 12:28:03;;;;;;;5.83;5.53;;;22.00;35.80;;;;;;5038785;28;20557;-78
2021/07/10 12:30:49;;;;;;;5.00;4.70;;;22.00;36.10;;;;;;5038021;28;20794;-78
2021/07/10 12:33:38;;;;;;;5.30;4.90;;;22.00;36.60;;;;;;5037496;28;20501;-77
2021/07/10 12:36:10;;;;;;;7.93;5.53;;;22.00;36.50;;;;;;5037702;28;20427;-78
2021/07/10 12:38:48;;;;;;;5.27;4.87;;;22.00;36.70;;;;;;5038559;28;20780;-78
2021/07/10 12:41:25;;;;;;;4.87;4.57;;;22.00;36.80;;;;;;5037708;28;20431;-78
2021/07/10 12:43:52;;;;;;;5.00;4.70;;;22.00;36.80;;;;;;5037670;28;20449;-79
2021/07/10 12:46:18;;;;;;;5.93;5.40;;;22.00;36.90;;;;;;5037202;28;20432;-78
2021/07/10 12:48:48;;;;;;;4.67;4.47;;;22.00;37.20;;;;;;5039234;28;20455;-78
2021/07/10 12:51:14;;;;;;;4.73;4.53;;;22.00;37.10;;;;;;5039011;28;20477;-78
2021/07/10 12:53:43;;;;;;;5.30;4.90;;;22.00;37.30;;;;;;5039631;28;20411;-78
2021/07/10 12:56:25;;;;;;;4.93;4.33;;;22.00;37.30;;;;;;5038497;28;20184;-78
2021/07/10 12:58:55;;;;;;;4.90;4.60;;;22.00;37.50;;;;;;5029841;28;20451;-77
2021/07/10 13:01:26;;;;;;;5.83;5.30;;;22.00;37.50;;;;;;5029292;28;20555;-78
2021/07/10 13:03:55;;;;;;;5.60;5.20;;;22.00;37.50;;;;;;5030503;28;20419;-79